Ashburton, United Kingdom
Current Conditions -  °F | °C
As of 8:20 AM on Sunday 23 Nov 2014 (Local Time) from EGTE Reporting Station
Few Clouds Few Clouds  
Wind Chill: 46°   Ceiling: Unl
Heat Index: 46°   Visibility: 6mi
Dew Point: 43°   Wind: 3mph
Humidity: 87%   Direction: 320°NW
Pressure: 30.03"   Gusts: NA
Location:  50.52°N, 3.76°W
Report Text: EGTE 230820Z 32003KT 9999 FEW020 08/06 Q1017
Loading
Personal Weather Stations






























Interactive Weather Map New forecast layout! Learn more

10-Day Weather Forecast

Advertisements
Track Severe Weather on mobile